Time;durP1;ratioP1;P1;durP2;ratioP2;P2;SDS_P1;SDS_P2;PMS_P1;PMS_P2;Temp;Humidity;BMP_temperature;BMP_pressure;BME280_temperature;BME280_humidity;BME280_pressure;Samples;Min_cycle;Max_cycle;Signal;HPM_P1;HPM_P2
2023/04/16 00:00:24;;;;;;;3.00;2.70;;;18.80;49.30;;;;;;5031432;28;20196;-68
2023/04/16 00:02:51;;;;;;;2.97;2.60;;;18.80;49.20;;;;;;5032674;28;20188;-68
2023/04/16 00:05:20;;;;;;;3.20;2.90;;;18.80;49.30;;;;;;5031417;28;20204;-68
2023/04/16 00:07:47;;;;;;;2.92;2.45;;;18.80;49.20;;;;;;5031426;28;20302;-67
2023/04/16 00:10:14;;;;;;;3.30;2.90;;;18.80;49.20;;;;;;5031282;28;20200;-68
2023/04/16 00:12:42;;;;;;;2.78;2.58;;;18.70;49.20;;;;;;5031226;28;20216;-67
2023/04/16 00:15:10;;;;;;;3.08;2.80;;;18.70;49.10;;;;;;5031315;28;20242;-67
2023/04/16 00:17:37;;;;;;;3.28;2.83;;;18.70;49.20;;;;;;5033996;28;20301;-68
2023/04/16 00:20:05;;;;;;;3.92;2.83;;;18.70;49.10;;;;;;5034905;28;20228;-68
2023/04/16 00:22:34;;;;;;;3.03;2.70;;;18.70;49.20;;;;;;5035866;28;20192;-67
2023/04/16 00:25:01;;;;;;;3.22;2.90;;;18.70;49.10;;;;;;5034889;28;20196;-68
2023/04/16 00:27:28;;;;;;;3.25;2.95;;;18.70;49.10;;;;;;5035914;28;20216;-68
2023/04/16 00:29:56;;;;;;;3.35;2.53;;;18.70;49.20;;;;;;5034787;28;20230;-68
2023/04/16 00:32:23;;;;;;;3.30;2.70;;;18.70;49.20;;;;;;5034897;28;20216;-68
2023/04/16 00:34:50;;;;;;;2.72;2.50;;;18.70;49.20;;;;;;5034607;28;20231;-68
2023/04/16 00:37:19;;;;;;;2.95;2.60;;;18.60;49.00;;;;;;5034812;28;20722;-68
2023/04/16 00:39:47;;;;;;;2.72;2.53;;;18.60;49.10;;;;;;5036119;28;20191;-69
2023/04/16 00:42:15;;;;;;;2.63;2.42;;;18.60;49.10;;;;;;5034715;28;20200;-68
2023/04/16 00:44:42;;;;;;;3.20;2.90;;;18.60;49.10;;;;;;5034475;28;20295;-67
2023/04/16 00:47:09;;;;;;;3.00;2.53;;;18.60;49.10;;;;;;5035264;28;20223;-68
2023/04/16 00:49:37;;;;;;;2.75;2.55;;;18.60;49.10;;;;;;5035396;28;20619;-67
2023/04/16 00:52:04;;;;;;;3.40;3.10;;;18.60;49.10;;;;;;5034473;28;20200;-68
2023/04/16 00:54:32;;;;;;;2.75;2.55;;;18.60;49.10;;;;;;5034301;28;20247;-68
2023/04/16 00:57:01;;;;;;;2.80;2.60;;;18.60;49.10;;;;;;5034126;28;20215;-68
2023/04/16 00:59:28;;;;;;;2.78;2.58;;;18.50;49.00;;;;;;5034187;28;20211;-67
2023/04/16 01:01:55;;;;;;;2.42;2.22;;;18.60;49.10;;;;;;5034105;28;20684;-67
2023/04/16 01:04:22;;;;;;;2.88;2.50;;;18.50;49.20;;;;;;5034223;28;20196;-68
2023/04/16 01:06:50;;;;;;;2.92;2.60;;;18.50;49.00;;;;;;5035289;28;20619;-67
2023/04/16 01:09:17;;;;;;;3.20;2.90;;;18.50;49.00;;;;;;5034067;28;20697;-67
2023/04/16 01:11:44;;;;;;;2.90;2.70;;;18.50;49.00;;;;;;5034000;28;20203;-68
2023/04/16 01:14:12;;;;;;;2.85;2.65;;;18.50;49.00;;;;;;5033927;28;20224;-68
2023/04/16 01:16:40;;;;;;;3.03;2.40;;;18.50;49.00;;;;;;5033849;28;20286;-68
2023/04/16 01:19:07;;;;;;;2.72;2.53;;;18.50;49.00;;;;;;5035141;28;20242;-68
2023/04/16 01:21:35;;;;;;;2.25;2.05;;;18.50;49.00;;;;;;5033763;28;20250;-68
2023/04/16 01:24:04;;;;;;;2.45;2.25;;;18.50;49.00;;;;;;5033780;28;20199;-68
2023/04/16 01:26:31;;;;;;;2.53;2.33;;;18.50;49.00;;;;;;5034142;28;20201;-68
2023/04/16 01:28:59;;;;;;;2.50;2.30;;;18.40;49.00;;;;;;5033659;28;20220;-68
2023/04/16 01:31:26;;;;;;;2.85;2.65;;;18.40;49.00;;;;;;5033818;28;20204;-67
2023/04/16 01:34:12;;;;;;;2.70;2.50;;;18.40;49.00;;;;;;5035030;28;20211;-67
2023/04/16 01:36:40;;;;;;;2.50;2.20;;;18.40;49.00;;;;;;5033698;28;20246;-67
2023/04/16 01:39:10;;;;;;;2.30;2.10;;;18.40;48.90;;;;;;5033705;28;20559;-67
2023/04/16 01:41:37;;;;;;;2.63;2.42;;;18.40;49.00;;;;;;5033689;28;20629;-67
2023/04/16 01:44:05;;;;;;;2.85;2.30;;;18.40;49.00;;;;;;5033962;28;20206;-67
2023/04/16 01:46:33;;;;;;;2.35;2.15;;;18.40;49.00;;;;;;5034963;28;20195;-67
2023/04/16 01:49:00;;;;;;;2.38;2.22;;;18.40;49.00;;;;;;5033941;28;20216;-67
2023/04/16 01:51:27;;;;;;;2.45;2.25;;;18.40;49.00;;;;;;5034205;28;20262;-67
2023/04/16 01:53:57;;;;;;;3.05;2.40;;;18.40;49.00;;;;;;5034672;28;20573;-67
2023/04/16 01:56:24;;;;;;;2.50;2.30;;;18.30;48.90;;;;;;5034886;28;20192;-67
2023/04/16 01:58:51;;;;;;;2.60;2.40;;;18.30;48.90;;;;;;5034075;28;20588;-67
2023/04/16 02:01:19;;;;;;;2.50;2.30;;;18.30;48.90;;;;;;5033947;28;20192;-67
2023/04/16 02:03:47;;;;;;;2.60;2.40;;;18.30;48.90;;;;;;5033706;28;20541;-67
2023/04/16 02:06:15;;;;;;;2.50;2.28;;;18.30;48.90;;;;;;5034159;28;20250;-67
2023/04/16 02:08:42;;;;;;;2.33;2.13;;;18.30;48.90;;;;;;5033669;28;20701;-67
2023/04/16 02:11:10;;;;;;;2.40;2.20;;;18.30;48.90;;;;;;5033467;28;20220;-68
2023/04/16 02:13:38;;;;;;;2.72;2.10;;;18.30;49.00;;;;;;5033180;28;20220;-68
2023/04/16 02:16:06;;;;;;;2.72;2.10;;;18.30;49.00;;;;;;5033095;28;20283;-68
2023/04/16 02:19:03;;;;;;;2.67;2.47;;;18.30;48.90;;;;;;5029363;28;20219;-68
2023/04/16 02:21:33;;;;;;;2.40;2.20;;;18.30;48.90;;;;;;5033237;28;20211;-66
2023/04/16 02:24:00;;;;;;;2.35;2.10;;;18.30;49.00;;;;;;5032766;28;20258;-67
2023/04/16 02:26:32;;;;;;;2.05;1.90;;;18.30;49.00;;;;;;5032864;28;20616;-67
2023/04/16 02:29:05;;;;;;;2.40;2.20;;;18.30;49.00;;;;;;5032645;28;20610;-67
2023/04/16 02:31:39;;;;;;;2.22;2.13;;;18.30;49.00;;;;;;5033467;28;20196;-66
2023/04/16 02:34:07;;;;;;;2.45;2.00;;;18.30;49.00;;;;;;5032450;28;20263;-66
2023/04/16 02:36:34;;;;;;;2.05;1.90;;;18.20;49.00;;;;;;5032581;28;20197;-67
2023/04/16 02:39:02;;;;;;;2.17;2.03;;;18.20;49.00;;;;;;5032018;28;20267;-67
2023/04/16 02:41:29;;;;;;;2.15;2.03;;;18.20;49.00;;;;;;5032294;28;20196;-66
2023/04/16 02:43:57;;;;;;;2.25;2.08;;;18.20;49.00;;;;;;5032160;28;20616;-67
2023/04/16 02:46:24;;;;;;;2.10;1.90;;;18.20;49.00;;;;;;5032464;28;20200;-66
2023/04/16 02:48:52;;;;;;;2.03;1.92;;;18.20;49.00;;;;;;5032133;28;20227;-66
2023/04/16 02:51:19;;;;;;;2.40;2.20;;;18.20;49.00;;;;;;5032095;28;20682;-66
2023/04/16 02:53:46;;;;;;;2.40;2.20;;;18.20;49.00;;;;;;5033044;28;20216;-67
2023/04/16 02:56:14;;;;;;;2.35;2.10;;;18.20;49.00;;;;;;5033050;28;20207;-67
2023/04/16 02:58:41;;;;;;;2.20;2.00;;;18.20;49.10;;;;;;5032196;28;20216;-67
2023/04/16 03:01:09;;;;;;;2.20;2.10;;;18.20;49.10;;;;;;5032662;28;20278;-67
2023/04/16 03:03:37;;;;;;;2.35;2.15;;;18.20;49.10;;;;;;5032416;28;20582;-67
2023/04/16 03:06:04;;;;;;;1.98;1.88;;;18.20;49.00;;;;;;5032248;28;20192;-68
2023/04/16 03:08:32;;;;;;;2.45;2.25;;;18.20;49.00;;;;;;5032573;28;20220;-66
2023/04/16 03:10:59;;;;;;;2.50;2.30;;;18.20;48.90;;;;;;5033704;28;20194;-66
2023/04/16 03:13:26;;;;;;;2.67;2.38;;;18.20;48.80;;;;;;5033401;28;20215;-67
2023/04/16 03:15:53;;;;;;;2.40;2.17;;;18.20;48.90;;;;;;5032156;28;20202;-67
2023/04/16 03:18:21;;;;;;;2.50;2.30;;;18.20;48.80;;;;;;5031839;28;20219;-66
2023/04/16 03:20:53;;;;;;;1.90;1.80;;;18.20;48.90;;;;;;5044218;22;20314;-81
2023/04/16 03:23:20;;;;;;;2.60;2.40;;;18.20;48.90;;;;;;5003205;28;20232;-81
2023/04/16 03:25:47;;;;;;;2.58;2.30;;;18.20;48.90;;;;;;5019027;28;20201;-81
2023/04/16 03:28:17;;;;;;;2.42;2.22;;;18.20;49.50;;;;;;5018162;28;20193;-80
2023/04/16 03:30:50;;;;;;;2.50;2.10;;;18.20;49.00;;;;;;5016024;28;20200;-81
2023/04/16 03:33:17;;;;;;;1.90;1.80;;;18.20;49.10;;;;;;5014838;28;20679;-79
2023/04/16 03:35:46;;;;;;;2.28;2.08;;;18.20;49.00;;;;;;5031159;28;20192;-80
2023/04/16 03:38:14;;;;;;;2.20;2.00;;;18.20;48.80;;;;;;5030033;28;20203;-80
2023/04/16 03:40:41;;;;;;;2.45;2.25;;;18.30;49.00;;;;;;5014409;28;20231;-80
2023/04/16 03:43:09;;;;;;;2.25;2.05;;;18.30;48.90;;;;;;5013831;28;20231;-80
2023/04/16 03:45:36;;;;;;;2.33;2.10;;;18.30;48.90;;;;;;5013934;28;20197;-80
2023/04/16 03:48:04;;;;;;;2.33;2.00;;;18.30;48.80;;;;;;5013577;28;20197;-80
2023/04/16 03:50:31;;;;;;;2.38;2.17;;;18.40;48.80;;;;;;5014380;28;20196;-80
2023/04/16 03:53:00;;;;;;;2.53;2.33;;;18.40;48.80;;;;;;5017416;28;20213;-80
2023/04/16 03:55:28;;;;;;;2.42;2.22;;;18.40;48.70;;;;;;5034197;28;20204;-81
2023/04/16 03:57:56;;;;;;;2.08;1.98;;;18.40;48.70;;;;;;5000772;28;20236;-81
2023/04/16 04:00:23;;;;;;;2.42;2.22;;;18.40;48.50;;;;;;5017837;28;20662;-81
2023/04/16 04:03:06;;;;;;;2.30;2.10;;;18.50;48.50;;;;;;5019297;28;20224;-81
2023/04/16 04:05:36;;;;;;;2.50;2.30;;;18.50;48.40;;;;;;5001399;28;20689;-80
2023/04/16 04:08:05;;;;;;;2.38;2.17;;;18.50;48.40;;;;;;5018121;28;20200;-80
2023/04/16 04:10:33;;;;;;;2.53;2.33;;;18.50;48.30;;;;;;5034976;28;20189;-80
2023/04/16 04:13:00;;;;;;;2.90;2.70;;;18.50;48.30;;;;;;5019012;28;20611;-81
2023/04/16 04:15:28;;;;;;;2.80;2.60;;;18.50;48.30;;;;;;5002932;28;20612;-81
2023/04/16 04:17:56;;;;;;;2.55;2.30;;;18.40;48.30;;;;;;4987506;28;20204;-82
2023/04/16 04:20:23;;;;;;;2.53;2.33;;;18.50;48.40;;;;;;5018899;28;20224;-82
2023/04/16 04:22:52;;;;;;;2.50;2.30;;;18.50;48.30;;;;;;5022339;28;20591;-82
2023/04/16 04:25:24;;;;;;;2.83;2.60;;;18.50;48.20;;;;;;5032173;28;20192;-82
2023/04/16 04:27:51;;;;;;;3.10;2.30;;;18.50;48.20;;;;;;5029054;28;20250;-82
2023/04/16 04:30:19;;;;;;;2.72;2.53;;;18.50;48.20;;;;;;5023055;28;20651;-82
2023/04/16 04:32:46;;;;;;;2.53;2.33;;;18.50;48.10;;;;;;5021795;28;20311;-82
2023/04/16 04:35:16;;;;;;;2.95;2.75;;;18.50;48.10;;;;;;5022152;28;20228;-82
2023/04/16 04:37:44;;;;;;;2.53;2.33;;;18.50;48.10;;;;;;5021407;28;20215;-82
2023/04/16 04:40:16;;;;;;;2.40;2.20;;;18.50;48.20;;;;;;5036536;28;20193;-82
2023/04/16 04:42:45;;;;;;;2.55;2.35;;;18.50;48.20;;;;;;5036068;28;20217;-82
2023/04/16 04:45:12;;;;;;;2.50;2.30;;;18.50;48.10;;;;;;5019043;28;20193;-82
2023/04/16 04:47:41;;;;;;;2.85;2.65;;;18.50;48.10;;;;;;5018781;28;20733;-81
2023/04/16 04:50:09;;;;;;;2.65;2.45;;;18.50;48.10;;;;;;5034911;28;20624;-82
2023/04/16 04:52:36;;;;;;;2.13;2.03;;;18.50;48.10;;;;;;5019176;28;20670;-82
2023/04/16 04:55:03;;;;;;;2.03;1.92;;;18.50;48.10;;;;;;5018756;28;20227;-81
2023/04/16 04:57:30;;;;;;;2.88;2.50;;;18.50;48.10;;;;;;5017094;28;20569;-83
2023/04/16 05:00:02;;;;;;;2.53;2.33;;;18.50;48.10;;;;;;5001273;28;20197;-83
2023/04/16 05:02:36;;;;;;;2.33;2.13;;;18.50;48.10;;;;;;5032895;28;20217;-83
2023/04/16 05:05:03;;;;;;;2.50;2.30;;;18.40;48.10;;;;;;5017461;28;20203;-82
2023/04/16 05:07:30;;;;;;;2.30;2.10;;;18.40;48.10;;;;;;5016657;28;20250;-82
2023/04/16 05:09:57;;;;;;;3.03;2.65;;;18.40;48.10;;;;;;5001180;28;20212;-83
2023/04/16 05:12:24;;;;;;;2.60;2.40;;;18.50;48.20;;;;;;5015580;28;20225;-83
2023/04/16 05:14:52;;;;;;;2.40;2.20;;;18.40;48.10;;;;;;5015437;28;20252;-84
2023/04/16 05:17:20;;;;;;;2.80;2.60;;;18.50;48.20;;;;;;5016094;28;20200;-83
2023/04/16 05:19:47;;;;;;;2.38;2.17;;;18.50;48.10;;;;;;5016404;28;20601;-83
2023/04/16 05:22:17;;;;;;;2.20;2.10;;;18.50;48.10;;;;;;5015998;28;20239;-83
2023/04/16 05:24:45;;;;;;;2.55;2.30;;;18.50;48.10;;;;;;5015447;28;20239;-83
2023/04/16 05:27:12;;;;;;;2.55;2.35;;;18.40;48.00;;;;;;5015356;28;20660;-83
2023/04/16 05:29:39;;;;;;;2.50;2.30;;;18.50;48.00;;;;;;5031970;28;20200;-83
2023/04/16 05:32:06;;;;;;;2.47;2.28;;;18.50;48.00;;;;;;5016297;28;20200;-83
2023/04/16 05:34:35;;;;;;;2.13;2.03;;;18.50;47.90;;;;;;5016140;28;20217;-83
2023/04/16 05:37:02;;;;;;;2.80;2.30;;;18.50;47.90;;;;;;5016150;28;20196;-83
2023/04/16 05:39:29;;;;;;;2.33;2.17;;;18.50;47.90;;;;;;5032881;28;20707;-83
2023/04/16 05:41:56;;;;;;;2.70;2.50;;;18.50;47.80;;;;;;5016735;28;20279;-83
2023/04/16 05:44:23;;;;;;;2.60;2.40;;;18.50;47.90;;;;;;5017696;28;20189;-82
2023/04/16 05:46:51;;;;;;;2.67;2.47;;;18.50;47.80;;;;;;5001104;28;20221;-83
2023/04/16 05:49:19;;;;;;;3.05;2.80;;;18.50;47.80;;;;;;5017465;28;20197;-83
2023/04/16 05:51:47;;;;;;;3.55;3.25;;;18.60;47.70;;;;;;5015725;28;20646;-83
2023/04/16 05:54:15;;;;;;;3.20;2.90;;;18.60;47.70;;;;;;5015379;28;20224;-82
2023/04/16 05:56:42;;;;;;;3.28;3.08;;;18.60;47.80;;;;;;5031792;28;20201;-83
2023/04/16 05:59:09;;;;;;;3.60;3.30;;;18.70;47.60;;;;;;5015350;28;20196;-83
2023/04/16 06:01:37;;;;;;;3.95;3.55;;;18.70;47.50;;;;;;5000175;28;20595;-83
2023/04/16 06:04:04;;;;;;;3.72;3.42;;;18.70;47.40;;;;;;4999032;28;20224;-83
2023/04/16 06:06:31;;;;;;;3.78;3.47;;;18.60;47.50;;;;;;5033533;28;20199;-82
2023/04/16 06:09:00;;;;;;;3.67;3.38;;;18.60;47.60;;;;;;5017723;28;20303;-82
2023/04/16 06:11:27;;;;;;;4.38;3.97;;;18.60;47.50;;;;;;5015877;28;20228;-82
2023/04/16 06:13:54;;;;;;;3.92;3.60;;;18.60;47.60;;;;;;5014591;28;20221;-82
2023/04/16 06:16:21;;;;;;;4.35;3.95;;;18.60;47.70;;;;;;5015261;28;20219;-82
2023/04/16 06:18:48;;;;;;;4.32;3.92;;;18.60;47.70;;;;;;5015586;28;20258;-82
2023/04/16 06:21:15;;;;;;;4.43;4.03;;;18.60;47.60;;;;;;5015049;28;20255;-82
2023/04/16 06:23:43;;;;;;;4.22;3.83;;;18.60;47.70;;;;;;5015707;28;20220;-82
2023/04/16 06:26:12;;;;;;;3.88;3.47;;;18.60;47.70;;;;;;5015187;28;20232;-82
2023/04/16 06:28:39;;;;;;;4.70;4.30;;;18.60;47.70;;;;;;5014655;28;20595;-82
2023/04/16 06:31:06;;;;;;;4.63;4.22;;;18.60;47.70;;;;;;5014937;28;20204;-82
2023/04/16 06:33:33;;;;;;;4.93;4.45;;;18.60;47.70;;;;;;5014380;28;20252;-82
2023/04/16 06:36:00;;;;;;;5.03;4.63;;;18.60;47.60;;;;;;5014119;28;20247;-82
2023/04/16 06:38:28;;;;;;;5.03;4.63;;;18.60;47.70;;;;;;5014284;28;20205;-81
2023/04/16 06:40:55;;;;;;;4.32;3.92;;;18.60;47.60;;;;;;4999443;28;20205;-81
2023/04/16 06:43:23;;;;;;;4.25;3.85;;;18.60;47.70;;;;;;5016206;28;20227;-81
2023/04/16 06:45:51;;;;;;;4.45;4.07;;;18.60;47.70;;;;;;5014514;28;20220;-81
2023/04/16 06:48:18;;;;;;;4.45;4.05;;;18.80;47.60;;;;;;5015159;28;20559;-83
2023/04/16 06:50:45;;;;;;;4.07;3.67;;;18.80;47.40;;;;;;5015974;28;20193;-82
2023/04/16 06:53:12;;;;;;;4.32;3.92;;;18.80;47.30;;;;;;5031394;28;20216;-82
2023/04/16 06:55:39;;;;;;;4.25;3.85;;;18.80;47.40;;;;;;5014873;28;20266;-82
2023/04/16 06:58:06;;;;;;;4.70;4.30;;;18.70;47.30;;;;;;5031397;28;20196;-82
2023/04/16 07:00:35;;;;;;;4.15;3.80;;;18.70;47.40;;;;;;5014565;28;20196;-82
2023/04/16 07:03:02;;;;;;;3.40;3.10;;;18.70;47.40;;;;;;5014961;28;20311;-82
2023/04/16 07:05:29;;;;;;;4.65;4.18;;;18.70;47.40;;;;;;5014503;28;20238;-82
2023/04/16 07:07:56;;;;;;;4.22;3.83;;;18.70;47.40;;;;;;5014498;28;20203;-82
2023/04/16 07:10:23;;;;;;;3.90;3.50;;;18.80;47.40;;;;;;5014382;28;20197;-82
2023/04/16 07:12:50;;;;;;;4.75;4.18;;;18.80;47.40;;;;;;5014458;28;20220;-81
2023/04/16 07:15:18;;;;;;;4.95;4.55;;;18.80;47.20;;;;;;5014892;28;20308;-81
2023/04/16 07:17:46;;;;;;;4.43;4.03;;;18.80;47.20;;;;;;5014741;28;20762;-81
2023/04/16 07:20:14;;;;;;;4.43;4.03;;;18.80;47.20;;;;;;4997800;28;20292;-81
2023/04/16 07:22:42;;;;;;;4.60;4.20;;;18.80;47.20;;;;;;5013801;28;20228;-81
2023/04/16 07:25:09;;;;;;;4.57;4.18;;;18.80;47.20;;;;;;5015224;28;20227;-81
2023/04/16 07:27:36;;;;;;;4.22;3.85;;;18.80;47.20;;;;;;5018350;28;20216;-81
2023/04/16 07:30:04;;;;;;;4.25;3.85;;;18.80;47.10;;;;;;5018286;28;20698;-81
2023/04/16 07:32:31;;;;;;;4.40;4.00;;;18.90;47.00;;;;;;5018433;28;20283;-81
2023/04/16 07:35:00;;;;;;;4.43;4.03;;;19.00;47.00;;;;;;5017905;28;20223;-81
2023/04/16 07:37:27;;;;;;;4.32;3.95;;;19.00;46.90;;;;;;5019638;28;20250;-81
2023/04/16 07:39:56;;;;;;;4.40;4.00;;;19.00;46.80;;;;;;5019305;28;20201;-81
2023/04/16 07:42:23;;;;;;;3.97;3.67;;;19.10;46.80;;;;;;5018297;28;20220;-82
2023/04/16 07:44:50;;;;;;;3.67;3.38;;;19.10;46.70;;;;;;5017793;28;20659;-81
2023/04/16 07:47:17;;;;;;;4.40;4.00;;;19.10;46.60;;;;;;5018979;28;20189;-82
2023/04/16 07:49:44;;;;;;;4.22;3.70;;;19.20;46.50;;;;;;5019815;28;20197;-82
2023/04/16 07:52:13;;;;;;;4.55;4.10;;;19.20;46.40;;;;;;5035461;28;20596;-82
2023/04/16 07:54:40;;;;;;;3.65;3.35;;;19.20;46.20;;;;;;5019191;28;20240;-82
2023/04/16 07:57:07;;;;;;;4.43;4.03;;;19.30;46.30;;;;;;5018860;28;20204;-82
2023/04/16 07:59:34;;;;;;;3.55;3.25;;;19.30;46.20;;;;;;5002916;28;20196;-82
2023/04/16 08:02:02;;;;;;;3.70;3.40;;;19.40;46.20;;;;;;5002596;28;20205;-81
2023/04/16 08:04:29;;;;;;;3.63;3.33;;;19.40;46.20;;;;;;5035623;28;20625;-81
2023/04/16 08:06:56;;;;;;;4.57;4.18;;;19.40;46.20;;;;;;5002695;28;20247;-81
2023/04/16 08:09:27;;;;;;;5.05;4.30;;;19.40;46.10;;;;;;5035032;28;20204;-82
2023/04/16 08:11:54;;;;;;;4.00;3.70;;;19.40;46.10;;;;;;5018519;28;20196;-82
2023/04/16 08:14:21;;;;;;;4.05;3.75;;;19.40;46.10;;;;;;5019214;28;20205;-82
2023/04/16 08:16:49;;;;;;;3.78;3.47;;;19.40;46.10;;;;;;5035196;28;20224;-82
2023/04/16 08:19:16;;;;;;;4.30;3.90;;;19.40;46.00;;;;;;5018176;28;20606;-82
2023/04/16 08:21:43;;;;;;;4.00;3.67;;;19.40;46.00;;;;;;5018114;28;20228;-82
2023/04/16 08:24:10;;;;;;;3.78;3.47;;;19.40;45.90;;;;;;5033303;28;20262;-82
2023/04/16 08:26:38;;;;;;;4.32;3.92;;;19.40;45.90;;;;;;5017038;28;20193;-82
2023/04/16 08:29:05;;;;;;;3.97;3.63;;;19.50;45.90;;;;;;5033810;28;20231;-81
2023/04/16 08:31:32;;;;;;;4.80;3.95;;;19.40;45.80;;;;;;5033972;28;20204;-80
2023/04/16 08:34:00;;;;;;;4.22;3.85;;;19.40;45.70;;;;;;5016806;28;20291;-80
2023/04/16 08:36:28;;;;;;;4.07;3.78;;;19.50;45.90;;;;;;5032662;28;20761;-80
2023/04/16 08:38:55;;;;;;;4.18;3.80;;;19.50;45.90;;;;;;5016469;28;20280;-80
2023/04/16 08:41:22;;;;;;;4.57;4.18;;;19.50;45.90;;;;;;5016711;28;20659;-79
2023/04/16 08:43:51;;;;;;;4.53;3.75;;;19.50;46.00;;;;;;5033139;28;20231;-79
2023/04/16 08:46:18;;;;;;;4.35;3.95;;;19.50;45.80;;;;;;5016066;28;20228;-80
2023/04/16 08:48:46;;;;;;;3.97;3.67;;;19.50;45.80;;;;;;5032969;28;20211;-80
2023/04/16 08:51:13;;;;;;;3.92;3.63;;;19.50;45.80;;;;;;5017006;28;20211;-80
2023/04/16 08:53:43;;;;;;;4.00;3.70;;;19.50;45.70;;;;;;5016436;28;20221;-80
2023/04/16 08:56:12;;;;;;;4.05;3.65;;;19.50;45.70;;;;;;5015784;28;20212;-80
2023/04/16 08:58:39;;;;;;;4.68;4.07;;;19.50;45.60;;;;;;5015999;28;20208;-81
2023/04/16 09:01:08;;;;;;;4.60;4.07;;;19.50;45.60;;;;;;5016182;28;20205;-80
2023/04/16 09:03:36;;;;;;;3.85;3.55;;;19.60;45.60;;;;;;5016340;28;20220;-80
2023/04/16 09:06:03;;;;;;;4.20;3.58;;;19.60;45.60;;;;;;5032636;28;20189;-82
2023/04/16 09:08:30;;;;;;;4.40;4.00;;;19.60;45.50;;;;;;5017798;28;20612;-82
2023/04/16 09:10:57;;;;;;;4.30;3.97;;;19.60;45.50;;;;;;5018249;28;20200;-83
2023/04/16 09:13:24;;;;;;;3.80;3.50;;;19.50;45.70;;;;;;5001092;28;20224;-83
2023/04/16 09:15:52;;;;;;;3.90;3.60;;;19.50;45.80;;;;;;5033968;28;20247;-83
2023/04/16 09:18:21;;;;;;;4.45;4.05;;;19.60;45.90;;;;;;5033584;28;20196;-83
2023/04/16 09:23:43;;;;;;;4.53;4.13;;;19.50;45.90;;;;;;5019667;28;20637;-78
2023/04/16 09:26:10;;;;;;;4.03;3.72;;;19.40;46.10;;;;;;5001951;28;20197;-78
2023/04/16 09:28:41;;;;;;;4.78;4.38;;;19.40;46.30;;;;;;5001331;28;20204;-80
2023/04/16 09:31:10;;;;;;;4.35;3.95;;;19.40;46.60;;;;;;5002272;28;20268;-79
2023/04/16 09:33:38;;;;;;;4.57;4.13;;;19.40;46.70;;;;;;5002059;28;20247;-80
2023/04/16 09:36:06;;;;;;;4.60;3.83;;;19.50;47.60;;;;;;5013815;28;20221;-79
2023/04/16 09:38:46;;;;;;;4.35;3.95;;;19.40;47.40;;;;;;5005404;28;20181;-79
2023/04/16 09:41:15;;;;;;;5.22;4.70;;;19.50;47.20;;;;;;4997669;28;20205;-80
2023/04/16 09:43:42;;;;;;;4.43;4.03;;;19.60;47.60;;;;;;4975833;28;20259;-82
2023/04/16 09:46:11;;;;;;;1135.40;661.15;;;19.60;47.70;;;;;;5007553;28;20285;-81
2023/04/16 09:48:40;;;;;;;716.67;463.63;;;19.50;50.70;;;;;;5003482;28;20092;-80
2023/04/16 09:51:07;;;;;;;303.35;192.23;;;19.60;53.30;;;;;;4988609;28;20197;-80
2023/04/16 09:53:34;;;;;;;231.18;132.57;;;19.50;52.20;;;;;;5003702;28;20279;-82
2023/04/16 09:56:02;;;;;;;220.32;133.73;;;19.50;51.20;;;;;;5003602;28;20266;-81
2023/04/16 09:58:29;;;;;;;180.30;111.00;;;19.50;50.90;;;;;;5003701;28;20204;-81
2023/04/16 10:00:57;;;;;;;142.25;87.93;;;19.60;50.00;;;;;;4999114;28;20542;-81
2023/04/16 10:03:44;;;;;;;131.95;76.88;;;19.60;48.80;;;;;;5017361;28;20224;-81
2023/04/16 10:06:15;;;;;;;115.57;71.22;;;19.60;48.50;;;;;;5015741;28;20196;-82
2023/04/16 10:08:43;;;;;;;123.28;74.63;;;19.60;49.00;;;;;;5001226;28;20650;-82
2023/04/16 10:11:11;;;;;;;116.43;78.43;;;19.60;48.30;;;;;;4999287;28;20205;-81
2023/04/16 10:13:38;;;;;;;104.47;67.70;;;19.60;49.60;;;;;;4984050;28;20750;-82
2023/04/16 10:16:06;;;;;;;100.88;64.88;;;19.60;48.40;;;;;;5000029;28;20695;-82
2023/04/16 10:18:33;;;;;;;96.90;63.70;;;19.60;48.20;;;;;;5000765;28;20201;-82
2023/04/16 10:21:02;;;;;;;94.60;56.38;;;19.60;47.90;;;;;;5002295;28;20267;-82
2023/04/16 10:23:29;;;;;;;81.50;53.40;;;19.60;48.10;;;;;;5016815;28;20224;-82
2023/04/16 10:25:56;;;;;;;77.57;51.55;;;19.60;48.10;;;;;;5000704;28;20214;-82
2023/04/16 10:28:23;;;;;;;74.60;51.30;;;19.60;48.10;;;;;;4999182;28;20204;-82
2023/04/16 10:30:52;;;;;;;80.15;53.33;;;19.50;47.80;;;;;;5002652;28;20443;-82
2023/04/16 10:33:21;;;;;;;71.80;48.30;;;19.60;48.20;;;;;;5001967;28;20224;-82
2023/04/16 10:35:47;;;;;;;88.85;54.58;;;19.60;47.90;;;;;;5001116;28;20307;-82
2023/04/16 10:38:23;;;;;;;69.05;46.15;;;19.60;48.20;;;;;;4999823;28;20239;-82
2023/04/16 10:40:50;;;;;;;68.63;44.88;;;19.60;48.20;;;;;;5002518;28;20196;-81
2023/04/16 10:43:18;;;;;;;63.53;42.95;;;19.70;48.90;;;;;;5001881;28;20220;-81
2023/04/16 10:45:45;;;;;;;62.83;42.05;;;19.70;48.50;;;;;;5005480;28;20542;-82
2023/04/16 10:48:13;;;;;;;73.80;45.33;;;19.70;48.50;;;;;;5002760;28;20228;-82
2023/04/16 10:50:40;;;;;;;60.40;37.78;;;19.70;48.60;;;;;;5018126;28;20200;-82
2023/04/16 10:53:27;;;;;;;55.83;37.00;;;19.70;48.10;;;;;;5000938;28;20288;-81
2023/04/16 10:56:11;;;;;;;59.15;37.97;;;19.70;47.90;;;;;;5001201;28;20223;-82
2023/04/16 10:58:39;;;;;;;55.78;35.63;;;19.80;48.20;;;;;;4985536;28;20617;-82
2023/04/16 11:01:12;;;;;;;52.08;35.08;;;19.80;48.20;;;;;;5019584;28;20208;-81
2023/04/16 11:03:43;;;;;;;52.47;35.75;;;19.80;48.10;;;;;;5002653;28;20316;-80
2023/04/16 11:06:13;;;;;;;48.38;33.47;;;19.80;48.00;;;;;;5000038;28;20275;-81
2023/04/16 11:08:44;;;;;;;52.40;34.30;;;19.90;48.10;;;;;;5017265;28;20196;-81
2023/04/16 11:11:13;;;;;;;43.10;30.35;;;19.90;47.90;;;;;;4984207;28;20236;-82
2023/04/16 11:13:42;;;;;;;49.08;31.23;;;19.90;47.50;;;;;;4999533;28;20224;-78
2023/04/16 11:16:10;;;;;;;43.67;29.40;;;19.90;47.60;;;;;;4997877;28;20223;-79
2023/04/16 11:18:39;;;;;;;42.58;29.52;;;19.90;47.50;;;;;;4981117;28;20207;-79
2023/04/16 11:21:08;;;;;;;43.15;29.60;;;19.80;47.60;;;;;;4997533;28;20271;-79
2023/04/16 11:23:47;;;;;;;43.70;28.23;;;19.90;47.60;;;;;;4998714;28;20224;-79
2023/04/16 11:26:24;;;;;;;38.58;28.42;;;19.90;47.70;;;;;;4999413;28;20189;-79
2023/04/16 11:28:51;;;;;;;43.35;27.35;;;19.80;47.80;;;;;;4998856;28;20223;-80
2023/04/16 11:31:19;;;;;;;33.92;23.48;;;19.90;47.80;;;;;;4984867;28;20255;-79
2023/04/16 11:33:46;;;;;;;36.78;24.23;;;19.90;47.70;;;;;;5013881;28;20211;-79
2023/04/16 11:36:13;;;;;;;36.08;24.25;;;19.80;47.60;;;;;;5027958;28;20311;-79
2023/04/16 11:38:41;;;;;;;36.80;23.65;;;19.90;47.70;;;;;;4984636;28;20296;-78
2023/04/16 11:41:10;;;;;;;34.17;23.73;;;19.80;47.70;;;;;;4999781;28;20207;-79
2023/04/16 11:43:37;;;;;;;32.40;22.83;;;19.90;47.60;;;;;;4998362;28;20628;-79
2023/04/16 11:46:05;;;;;;;30.45;21.45;;;19.90;47.60;;;;;;4999325;28;20268;-79
2023/04/16 11:48:49;;;;;;;33.65;23.17;;;20.00;47.50;;;;;;4999725;28;20268;-79
2023/04/16 11:51:17;;;;;;;29.88;20.70;;;20.00;47.40;;;;;;5015761;28;20201;-79
2023/04/16 11:53:48;;;;;;;32.80;22.55;;;20.00;47.20;;;;;;4998922;28;20217;-79
2023/04/16 11:56:24;;;;;;;30.10;19.52;;;20.10;47.20;;;;;;4982009;28;20213;-79
2023/04/16 11:59:06;;;;;;;32.42;20.63;;;20.10;47.10;;;;;;4997376;28;20200;-79
2023/04/16 12:01:34;;;;;;;31.98;19.55;;;20.10;47.20;;;;;;4997876;28;20628;-79
2023/04/16 12:04:01;;;;;;;27.85;18.70;;;20.10;47.10;;;;;;4996809;28;20275;-79
2023/04/16 12:06:30;;;;;;;28.30;18.30;;;20.10;47.00;;;;;;4996973;28;20196;-79
2023/04/16 12:08:58;;;;;;;26.88;18.38;;;20.10;47.00;;;;;;4997210;28;20193;-79
2023/04/16 12:11:39;;;;;;;24.67;18.23;;;20.10;47.50;;;;;;4996788;28;20263;-79
2023/04/16 12:14:07;;;;;;;27.05;17.70;;;20.10;46.90;;;;;;5000655;28;20315;-79
2023/04/16 12:16:34;;;;;;;24.58;16.85;;;20.10;47.00;;;;;;5018340;28;20215;-79
2023/04/16 12:19:02;;;;;;;25.52;16.42;;;20.10;47.00;;;;;;5019261;28;20558;-79
2023/04/16 12:21:37;;;;;;;23.05;15.57;;;20.10;47.00;;;;;;5000889;28;20675;-79
2023/04/16 12:24:05;;;;;;;23.85;16.02;;;20.10;46.90;;;;;;4985176;28;20271;-79
2023/04/16 12:26:42;;;;;;;22.58;15.63;;;20.10;46.90;;;;;;5000763;28;20201;-79
2023/04/16 12:29:16;;;;;;;21.95;14.77;;;20.10;47.00;;;;;;5001808;28;20220;-79
2023/04/16 12:31:43;;;;;;;23.52;14.98;;;20.10;47.00;;;;;;5002661;28;20200;-80
2023/04/16 12:34:10;;;;;;;22.90;14.90;;;20.10;47.10;;;;;;5025944;28;20232;-80
2023/04/16 12:36:37;;;;;;;19.55;13.55;;;20.10;47.10;;;;;;5039091;28;20261;-79
2023/04/16 12:39:05;;;;;;;20.45;13.30;;;20.10;47.10;;;;;;5020560;28;20215;-79
2023/04/16 12:41:31;;;;;;;19.92;13.48;;;20.10;47.10;;;;;;5007652;28;20193;-79
2023/04/16 12:44:10;;;;;;;18.27;12.43;;;20.10;47.00;;;;;;5005237;28;20304;-79
2023/04/16 12:46:39;;;;;;;18.80;12.45;;;20.00;47.00;;;;;;5004402;28;20192;-79
2023/04/16 12:49:06;;;;;;;19.15;12.52;;;20.00;47.10;;;;;;4986661;28;20255;-79